createdAt,value
2023-03-15T00:00:20.206Z,0.00
2023-03-15T00:00:51.108Z,0.00
2023-03-15T00:01:22.025Z,0.00
2023-03-15T00:01:52.950Z,0.00
2023-03-15T00:02:23.905Z,0.00
2023-03-15T00:02:54.817Z,0.00
2023-03-15T00:03:25.793Z,0.00
2023-03-15T00:03:56.789Z,0.00
2023-03-15T00:04:27.206Z,0.00
2023-03-15T00:04:58.125Z,0.00
2023-03-15T00:05:29.067Z,0.00
2023-03-15T00:06:00.017Z,0.00
2023-03-15T00:06:30.982Z,0.00
2023-03-15T00:07:01.891Z,0.00
2023-03-15T00:07:32.814Z,0.00
2023-03-15T00:08:04.611Z,0.00
2023-03-15T00:08:34.628Z,0.00
2023-03-15T00:09:05.534Z,0.00
2023-03-15T00:09:36.442Z,0.00
2023-03-15T00:10:07.385Z,0.00
2023-03-15T00:10:38.287Z,0.00
2023-03-15T00:11:09.238Z,0.00
2023-03-15T00:11:40.131Z,0.00
2023-03-15T00:12:11.078Z,0.00
2023-03-15T00:12:42.011Z,0.00
2023-03-15T00:13:12.951Z,0.00
2023-03-15T00:13:43.893Z,0.00
2023-03-15T00:14:14.840Z,0.00
2023-03-15T00:14:45.773Z,0.00
2023-03-15T00:15:16.702Z,0.00
2023-03-15T00:15:47.693Z,0.00
2023-03-15T00:16:18.879Z,0.00
2023-03-15T00:16:49.375Z,0.00
2023-03-15T00:17:20.290Z,0.00
2023-03-15T00:17:51.229Z,0.00
2023-03-15T00:18:22.142Z,0.00
2023-03-15T00:18:53.084Z,0.00
2023-03-15T00:19:23.990Z,0.00
2023-03-15T00:19:54.915Z,0.00
2023-03-15T00:20:25.839Z,0.00
2023-03-15T00:20:56.771Z,0.00
2023-03-15T00:21:27.664Z,0.00
2023-03-15T00:21:58.581Z,0.00
2023-03-15T00:22:29.509Z,0.00
2023-03-15T00:23:00.436Z,0.00
2023-03-15T00:23:31.363Z,0.00
2023-03-15T00:24:02.288Z,0.00
2023-03-15T00:24:32.846Z,0.00
2023-03-15T00:25:03.756Z,0.00
2023-03-15T00:25:34.676Z,0.00
2023-03-15T00:26:05.613Z,0.00
2023-03-15T00:26:36.566Z,0.00
2023-03-15T00:27:07.513Z,0.00
2023-03-15T00:27:38.436Z,0.00
2023-03-15T00:28:09.346Z,0.00
2023-03-15T00:28:40.408Z,0.00
2023-03-15T00:29:10.789Z,0.00
2023-03-15T00:29:41.720Z,0.00
2023-03-15T00:30:12.651Z,0.00
2023-03-15T00:30:43.559Z,0.00
2023-03-15T00:31:14.541Z,0.00
2023-03-15T00:31:44.998Z,0.00
2023-03-15T00:32:15.920Z,0.00
2023-03-15T00:32:46.928Z,0.00
2023-03-15T00:33:17.833Z,0.00
2023-03-15T00:33:48.745Z,0.00
2023-03-15T00:34:19.704Z,0.00
2023-03-15T00:34:50.641Z,0.00
2023-03-15T00:35:21.589Z,0.00
2023-03-15T00:35:52.556Z,0.00
2023-03-15T00:36:23.476Z,0.00
2023-03-15T00:36:54.413Z,0.00
2023-03-15T00:37:25.344Z,0.00
2023-03-15T00:37:56.273Z,0.00
2023-03-15T00:38:27.161Z,0.00
2023-03-15T00:38:58.103Z,0.00
2023-03-15T00:39:29.010Z,0.00
2023-03-15T00:39:59.942Z,0.00
2023-03-15T00:40:30.872Z,0.00
2023-03-15T00:41:01.799Z,0.00
2023-03-15T00:41:32.727Z,0.00
2023-03-15T00:42:03.847Z,0.00
2023-03-15T00:42:34.235Z,0.00
2023-03-15T00:43:05.169Z,0.00
2023-03-15T00:43:36.101Z,0.00
2023-03-15T00:44:07.052Z,0.00
2023-03-15T00:44:37.951Z,0.00
2023-03-15T00:45:08.875Z,0.00
2023-03-15T00:45:39.838Z,0.00
2023-03-15T00:46:10.810Z,0.00
2023-03-15T00:46:41.313Z,0.00
2023-03-15T00:47:11.764Z,0.00
2023-03-15T00:47:42.678Z,0.00
2023-03-15T00:48:13.601Z,0.00
2023-03-15T00:48:44.527Z,0.00
2023-03-15T00:49:15.649Z,0.00
2023-03-15T00:49:46.096Z,0.00
2023-03-15T00:50:17.018Z,0.00
2023-03-15T00:50:47.904Z,0.00
2023-03-15T00:51:18.822Z,0.00
2023-03-15T00:51:49.763Z,0.00
2023-03-15T00:52:20.689Z,0.00
2023-03-15T00:52:51.612Z,0.00
2023-03-15T00:53:22.570Z,0.00
2023-03-15T00:53:53.558Z,0.00
2023-03-15T00:54:24.471Z,0.00
2023-03-15T00:54:55.153Z,0.00
2023-03-15T00:55:26.079Z,0.00
2023-03-15T00:55:57.011Z,0.00
2023-03-15T00:56:27.948Z,0.00
2023-03-15T00:56:58.876Z,0.00
2023-03-15T00:57:29.802Z,0.00
2023-03-15T00:58:00.715Z,0.00
2023-03-15T00:58:31.260Z,0.00
2023-03-15T00:59:02.224Z,0.00
2023-03-15T00:59:33.135Z,0.00
2023-03-15T01:00:04.062Z,0.00
2023-03-15T01:00:35.029Z,0.00
2023-03-15T01:01:05.932Z,0.00
2023-03-15T01:01:36.936Z,0.00
2023-03-15T01:02:07.977Z,0.00
2023-03-15T01:02:38.449Z,0.00
2023-03-15T01:03:09.472Z,0.00
2023-03-15T01:03:39.917Z,0.00
2023-03-15T01:04:10.856Z,0.00
2023-03-15T01:04:41.769Z,0.00
2023-03-15T01:05:12.707Z,0.00
2023-03-15T01:05:43.613Z,0.00
2023-03-15T01:06:14.578Z,0.00
2023-03-15T01:06:45.478Z,0.00
2023-03-15T01:07:16.399Z,0.00
2023-03-15T01:07:47.326Z,0.00
2023-03-15T01:08:18.270Z,0.00
2023-03-15T01:08:49.194Z,0.00
2023-03-15T01:09:20.137Z,0.00
2023-03-15T01:09:51.090Z,0.00
2023-03-15T01:10:22.047Z,0.00
2023-03-15T01:10:52.948Z,0.00
2023-03-15T01:11:23.857Z,0.00
2023-03-15T01:11:54.783Z,0.00
2023-03-15T01:12:25.702Z,0.00
2023-03-15T01:12:56.672Z,0.00
2023-03-15T01:13:27.580Z,0.00
2023-03-15T01:13:58.537Z,0.00
2023-03-15T01:14:29.510Z,0.00
2023-03-15T01:14:59.930Z,0.00
2023-03-15T01:15:30.862Z,0.00
2023-03-15T01:16:01.885Z,0.00
2023-03-15T01:16:32.414Z,0.00
2023-03-15T01:17:02.819Z,0.00
2023-03-15T01:17:33.775Z,0.00
2023-03-15T01:18:04.736Z,0.00
2023-03-15T01:18:35.677Z,0.00
2023-03-15T01:19:06.593Z,0.00
2023-03-15T01:19:37.486Z,0.00
2023-03-15T01:20:08.429Z,0.00
2023-03-15T01:20:39.367Z,0.00
2023-03-15T01:21:10.310Z,0.00
2023-03-15T01:21:41.215Z,0.00
2023-03-15T01:22:12.158Z,0.00
2023-03-15T01:22:43.090Z,0.00
2023-03-15T01:23:13.992Z,0.00
2023-03-15T01:23:44.918Z,0.00
2023-03-15T01:24:15.863Z,0.00
2023-03-15T01:24:46.801Z,0.00
2023-03-15T01:25:17.736Z,0.00
2023-03-15T01:25:48.661Z,0.00
2023-03-15T01:26:19.580Z,0.00
2023-03-15T01:26:50.468Z,0.00
2023-03-15T01:27:21.405Z,0.00
2023-03-15T01:27:52.372Z,0.00
2023-03-15T01:28:23.356Z,0.00
2023-03-15T01:28:54.249Z,0.00
2023-03-15T01:29:25.179Z,0.00
2023-03-15T01:29:56.097Z,0.00
2023-03-15T01:30:27.040Z,0.00
2023-03-15T01:30:59.862Z,0.00
2023-03-15T01:31:28.598Z,0.00
2023-03-15T01:31:59.044Z,0.00
2023-03-15T01:32:30.015Z,0.00
2023-03-15T01:33:01.040Z,0.00
2023-03-15T01:33:31.498Z,0.00
2023-03-15T01:34:02.399Z,0.00
2023-03-15T01:34:33.158Z,0.00
2023-03-15T01:35:04.093Z,0.00
2023-03-15T01:35:35.100Z,0.00
2023-03-15T01:36:06.059Z,0.00
2023-03-15T01:36:37.010Z,0.00
2023-03-15T01:37:07.951Z,0.00
2023-03-15T01:37:38.853Z,0.00
2023-03-15T01:38:09.785Z,0.00
2023-03-15T01:38:40.752Z,0.00
2023-03-15T01:39:11.668Z,0.00
2023-03-15T01:39:42.650Z,0.00
2023-03-15T01:40:14.365Z,0.00
2023-03-15T01:40:44.270Z,0.00
2023-03-15T01:41:15.224Z,0.00
2023-03-15T01:41:46.140Z,0.00
2023-03-15T01:42:17.052Z,0.00
2023-03-15T01:42:47.997Z,0.00
2023-03-15T01:43:18.890Z,0.00
2023-03-15T01:43:49.881Z,0.00
2023-03-15T01:44:20.813Z,0.00
2023-03-15T01:44:51.746Z,0.00
2023-03-15T01:45:22.669Z,0.00
2023-03-15T01:45:53.580Z,0.00
2023-03-15T01:46:24.615Z,0.00
2023-03-15T01:46:55.276Z,0.00
2023-03-15T01:47:25.724Z,0.00
2023-03-15T01:47:56.650Z,0.00
2023-03-15T01:48:27.574Z,0.00
2023-03-15T01:48:58.496Z,0.00
2023-03-15T01:49:29.416Z,0.00
2023-03-15T01:50:00.349Z,0.00
2023-03-15T01:50:31.270Z,0.00
2023-03-15T01:51:02.201Z,0.00
2023-03-15T01:51:33.139Z,0.00
2023-03-15T01:52:04.072Z,0.00
2023-03-15T01:52:35.045Z,0.00
2023-03-15T01:53:05.983Z,0.00
2023-03-15T01:53:36.921Z,0.00
2023-03-15T01:54:07.852Z,0.00
2023-03-15T01:54:38.827Z,0.00
2023-03-15T01:55:09.736Z,0.00
2023-03-15T01:55:40.657Z,0.00
2023-03-15T01:56:11.559Z,0.00
2023-03-15T01:56:42.120Z,0.00
2023-03-15T01:57:13.072Z,0.00
2023-03-15T01:57:43.971Z,0.00
2023-03-15T01:58:14.897Z,0.00
2023-03-15T01:58:45.847Z,0.00
2023-03-15T01:59:16.789Z,0.00
2023-03-15T01:59:47.697Z,0.00
2023-03-15T02:00:18.619Z,0.00
2023-03-15T02:00:49.558Z,0.00
2023-03-15T02:01:20.461Z,0.00
2023-03-15T02:01:51.464Z,0.00
2023-03-15T02:02:22.422Z,0.00
2023-03-15T02:02:53.347Z,0.00
2023-03-15T02:03:24.287Z,0.00
2023-03-15T02:03:55.218Z,0.00
2023-03-15T02:04:26.185Z,0.00
2023-03-15T02:04:57.121Z,0.00
2023-03-15T02:05:28.042Z,0.00
2023-03-15T02:05:58.959Z,0.00
2023-03-15T02:06:29.882Z,0.00
2023-03-15T02:07:00.773Z,0.00
2023-03-15T02:07:31.673Z,0.00
2023-03-15T02:08:02.592Z,0.00
2023-03-15T02:08:33.529Z,0.00
2023-03-15T02:09:04.456Z,0.00
2023-03-15T02:09:35.384Z,0.00
2023-03-15T02:10:06.300Z,0.00
2023-03-15T02:10:37.210Z,0.00
2023-03-15T02:11:08.127Z,0.00
2023-03-15T02:11:39.036Z,0.00
2023-03-15T02:12:09.947Z,0.00
2023-03-15T02:12:40.876Z,0.00
2023-03-15T02:13:11.781Z,0.00
2023-03-15T02:13:42.710Z,0.00
2023-03-15T02:14:13.627Z,0.00
2023-03-15T02:14:44.571Z,0.00
2023-03-15T02:15:15.491Z,0.00
2023-03-15T02:15:46.414Z,0.00
2023-03-15T02:16:17.437Z,0.00
2023-03-15T02:16:48.424Z,0.00
2023-03-15T02:17:19.355Z,0.00
2023-03-15T02:17:50.251Z,0.00
2023-03-15T02:18:21.174Z,0.00
2023-03-15T02:18:52.097Z,0.00
2023-03-15T02:19:23.016Z,0.00
2023-03-15T02:19:53.960Z,0.00
2023-03-15T02:20:24.897Z,0.00
2023-03-15T02:20:55.798Z,0.00
2023-03-15T02:21:26.721Z,0.00
2023-03-15T02:21:57.641Z,0.00
2023-03-15T02:22:28.559Z,0.00
2023-03-15T02:22:59.496Z,0.00
2023-03-15T02:23:30.414Z,0.00
2023-03-15T02:24:01.348Z,0.00
2023-03-15T02:24:32.280Z,0.00
2023-03-15T02:25:03.229Z,0.00
2023-03-15T02:25:34.147Z,0.00
2023-03-15T02:26:05.087Z,0.00
2023-03-15T02:26:35.993Z,0.00
2023-03-15T02:27:06.949Z,0.00
2023-03-15T02:27:37.663Z,0.00
2023-03-15T02:28:08.872Z,0.00
2023-03-15T02:28:38.788Z,0.00
2023-03-15T02:29:09.772Z,0.00
2023-03-15T02:29:40.684Z,0.00
2023-03-15T02:30:11.661Z,0.00
2023-03-15T02:30:42.555Z,0.00
2023-03-15T02:31:13.479Z,0.00
2023-03-15T02:31:44.556Z,0.00
2023-03-15T02:32:15.057Z,0.00
2023-03-15T02:32:45.992Z,0.00
2023-03-15T02:33:16.894Z,0.00
2023-03-15T02:33:47.817Z,0.00
2023-03-15T02:34:19.376Z,0.00
2023-03-15T02:34:49.295Z,0.00
2023-03-15T02:35:20.208Z,0.00
2023-03-15T02:35:51.170Z,0.00
2023-03-15T02:36:22.126Z,0.00
2023-03-15T02:36:53.065Z,0.00
2023-03-15T02:37:24.012Z,0.00
2023-03-15T02:37:54.953Z,0.00
2023-03-15T02:38:25.869Z,0.00
2023-03-15T02:38:56.799Z,0.00
2023-03-15T02:39:27.739Z,0.00
2023-03-15T02:39:58.641Z,0.00
2023-03-15T02:40:29.583Z,0.00
2023-03-15T02:41:00.513Z,0.00
2023-03-15T02:41:32.381Z,0.00
2023-03-15T02:42:02.324Z,0.00
2023-03-15T02:42:33.224Z,0.00
2023-03-15T02:43:04.161Z,0.00
2023-03-15T02:43:35.091Z,0.00
2023-03-15T02:44:06.015Z,0.00
2023-03-15T02:44:36.939Z,0.00
2023-03-15T02:45:07.882Z,0.00
2023-03-15T02:45:38.881Z,0.00
2023-03-15T02:46:09.835Z,0.00
2023-03-15T02:46:40.336Z,0.00
2023-03-15T02:47:11.269Z,0.00
2023-03-15T02:47:42.192Z,0.00
2023-03-15T02:48:13.114Z,0.00
2023-03-15T02:48:44.030Z,0.00
2023-03-15T02:49:14.548Z,0.00
2023-03-15T02:49:45.464Z,0.00
2023-03-15T02:50:16.400Z,0.00
2023-03-15T02:50:47.351Z,0.00
2023-03-15T02:51:18.262Z,0.00
2023-03-15T02:51:49.184Z,0.00
2023-03-15T02:52:20.119Z,0.00
2023-03-15T02:52:51.008Z,0.00
2023-03-15T02:53:21.936Z,0.00
2023-03-15T02:53:52.887Z,0.00
2023-03-15T02:54:23.779Z,0.00
2023-03-15T02:54:54.703Z,0.00
2023-03-15T02:55:25.615Z,0.00
2023-03-15T02:55:56.714Z,0.00
2023-03-15T02:56:27.182Z,0.00
2023-03-15T02:56:58.086Z,0.00
2023-03-15T02:57:29.001Z,0.00
2023-03-15T02:57:59.924Z,0.00
2023-03-15T02:58:30.841Z,0.00
2023-03-15T02:59:01.780Z,0.00
2023-03-15T02:59:32.706Z,0.00
2023-03-15T03:00:03.634Z,0.00
2023-03-15T03:00:34.563Z,0.00
2023-03-15T03:01:05.588Z,0.00
2023-03-15T03:01:36.044Z,0.00
2023-03-15T03:02:07.034Z,0.00
2023-03-15T03:02:37.531Z,0.00
2023-03-15T03:03:08.448Z,0.00
2023-03-15T03:03:39.351Z,0.00
2023-03-15T03:04:10.271Z,0.00
2023-03-15T03:04:41.201Z,0.00
2023-03-15T03:05:12.152Z,0.00
2023-03-15T03:05:43.077Z,0.00
2023-03-15T03:06:14.024Z,0.00
2023-03-15T03:06:44.957Z,0.00
2023-03-15T03:07:15.885Z,0.00
2023-03-15T03:07:46.802Z,0.00
2023-03-15T03:08:17.713Z,0.00
2023-03-15T03:08:48.649Z,0.00
2023-03-15T03:09:19.598Z,0.00
2023-03-15T03:09:50.523Z,0.00
2023-03-15T03:10:21.442Z,0.00
2023-03-15T03:10:52.350Z,0.00
2023-03-15T03:11:23.298Z,0.00
2023-03-15T03:11:54.247Z,0.00
2023-03-15T03:12:25.174Z,0.00
2023-03-15T03:12:56.098Z,0.00
2023-03-15T03:13:27.052Z,0.00
2023-03-15T03:13:57.958Z,0.00
2023-03-15T03:14:28.875Z,0.00
2023-03-15T03:14:59.837Z,0.00
2023-03-15T03:15:30.789Z,0.00
2023-03-15T03:16:01.697Z,0.00
2023-03-15T03:16:32.689Z,0.00
2023-03-15T03:17:03.638Z,0.00
2023-03-15T03:17:34.584Z,0.00
2023-03-15T03:18:05.516Z,0.00
2023-03-15T03:18:36.442Z,0.00
2023-03-15T03:19:07.351Z,0.00
2023-03-15T03:19:38.314Z,0.00
2023-03-15T03:20:09.259Z,0.00
2023-03-15T03:20:40.175Z,0.00
2023-03-15T03:21:11.101Z,0.00
2023-03-15T03:21:42.027Z,0.00
2023-03-15T03:22:12.949Z,0.00
2023-03-15T03:22:43.863Z,0.00
2023-03-15T03:23:14.770Z,0.00
2023-03-15T03:23:45.725Z,0.00
2023-03-15T03:24:16.664Z,0.00
2023-03-15T03:24:47.571Z,0.00
2023-03-15T03:25:18.495Z,0.00
2023-03-15T03:25:49.394Z,0.00
2023-03-15T03:26:20.345Z,0.00
2023-03-15T03:26:51.268Z,0.00
2023-03-15T03:27:22.223Z,0.00
2023-03-15T03:27:53.137Z,0.00
2023-03-15T03:28:24.062Z,0.00
2023-03-15T03:28:54.961Z,0.00
2023-03-15T03:29:25.892Z,0.00
2023-03-15T03:29:56.848Z,0.00
2023-03-15T03:30:27.793Z,0.00
2023-03-15T03:30:58.796Z,0.00
2023-03-15T03:31:29.704Z,0.00
2023-03-15T03:32:00.645Z,0.00
2023-03-15T03:32:31.586Z,0.00
2023-03-15T03:33:02.575Z,0.00
2023-03-15T03:33:33.460Z,0.00
2023-03-15T03:34:04.384Z,0.00
2023-03-15T03:34:35.298Z,0.00
2023-03-15T03:35:06.218Z,0.00
2023-03-15T03:35:37.263Z,0.00
2023-03-15T03:36:07.816Z,0.00
2023-03-15T03:36:38.737Z,0.00
2023-03-15T03:37:09.670Z,0.00
2023-03-15T03:37:40.631Z,0.00
2023-03-15T03:38:11.585Z,0.00
2023-03-15T03:38:42.508Z,0.00
2023-03-15T03:39:13.407Z,0.00
2023-03-15T03:39:44.318Z,0.00
2023-03-15T03:40:15.246Z,0.00
2023-03-15T03:40:46.158Z,0.00
2023-03-15T03:41:17.060Z,0.00
2023-03-15T03:41:47.977Z,0.00
2023-03-15T03:42:18.917Z,0.00
2023-03-15T03:42:49.852Z,0.00
2023-03-15T03:43:20.776Z,0.00
2023-03-15T03:43:51.680Z,0.00
2023-03-15T03:44:22.598Z,0.00
2023-03-15T03:44:53.519Z,0.00
2023-03-15T03:45:24.492Z,0.00
2023-03-15T03:45:55.457Z,0.00
2023-03-15T03:46:26.441Z,0.00
2023-03-15T03:46:57.349Z,0.00
2023-03-15T03:47:28.314Z,0.00
2023-03-15T03:47:59.227Z,0.00
2023-03-15T03:48:30.124Z,0.00
2023-03-15T03:49:01.035Z,0.00
2023-03-15T03:49:31.967Z,0.00
2023-03-15T03:50:02.878Z,0.00
2023-03-15T03:50:33.822Z,0.00
2023-03-15T03:51:04.751Z,0.00
2023-03-15T03:51:35.688Z,0.00
2023-03-15T03:52:06.641Z,0.00
2023-03-15T03:52:37.599Z,0.00
2023-03-15T03:53:08.497Z,0.00
2023-03-15T03:53:39.491Z,0.00
2023-03-15T03:54:10.388Z,0.00
2023-03-15T03:54:41.295Z,0.00
2023-03-15T03:55:12.269Z,0.00
2023-03-15T03:55:43.190Z,0.00
2023-03-15T03:56:14.117Z,0.00
2023-03-15T03:56:45.046Z,0.00
2023-03-15T03:57:15.979Z,0.00
2023-03-15T03:57:46.901Z,0.00
2023-03-15T03:58:17.841Z,0.00
2023-03-15T03:58:48.778Z,0.00
2023-03-15T03:59:19.711Z,0.00
2023-03-15T03:59:50.672Z,0.00
2023-03-15T04:00:21.641Z,0.00
2023-03-15T04:00:52.574Z,0.00
2023-03-15T04:01:23.499Z,0.00
2023-03-15T04:01:54.425Z,0.00
2023-03-15T04:02:25.388Z,0.00
2023-03-15T04:02:56.370Z,0.00
2023-03-15T04:03:27.465Z,0.00
2023-03-15T04:03:57.877Z,0.00
2023-03-15T04:04:28.846Z,0.00
2023-03-15T04:04:59.996Z,0.00
2023-03-15T04:05:30.730Z,0.00
2023-03-15T04:06:01.645Z,0.00
2023-03-15T04:06:32.533Z,0.00
2023-03-15T04:07:03.452Z,0.00
2023-03-15T04:07:34.385Z,0.00
2023-03-15T04:08:05.306Z,0.00
2023-03-15T04:08:36.255Z,0.00
2023-03-15T04:09:07.211Z,0.00
2023-03-15T04:09:38.147Z,0.00
2023-03-15T04:10:09.083Z,0.00
2023-03-15T04:10:39.993Z,0.00
2023-03-15T04:11:10.921Z,0.00
2023-03-15T04:11:41.851Z,0.00
2023-03-15T04:12:12.806Z,0.00
2023-03-15T04:12:43.767Z,0.00
2023-03-15T04:13:14.233Z,0.00
2023-03-15T04:13:45.157Z,0.00
2023-03-15T04:14:16.069Z,0.00
2023-03-15T04:14:47.024Z,0.00
2023-03-15T04:15:17.973Z,0.00
2023-03-15T04:15:48.986Z,0.00
2023-03-15T04:16:19.912Z,0.00
2023-03-15T04:16:50.881Z,0.00
2023-03-15T04:17:21.818Z,0.00
2023-03-15T04:17:52.745Z,0.00
2023-03-15T04:18:23.872Z,0.00
2023-03-15T04:18:54.271Z,0.00
2023-03-15T04:19:25.228Z,0.00
2023-03-15T04:19:56.145Z,0.00
2023-03-15T04:20:27.063Z,0.00
2023-03-15T04:20:57.969Z,0.00
2023-03-15T04:21:28.908Z,0.00
2023-03-15T04:21:59.832Z,0.00
2023-03-15T04:22:30.775Z,0.00
2023-03-15T04:23:01.691Z,0.00
2023-03-15T04:23:32.601Z,0.00
2023-03-15T04:24:03.550Z,0.00
2023-03-15T04:24:34.457Z,0.00
2023-03-15T04:25:05.363Z,0.00
2023-03-15T04:25:36.310Z,0.00
2023-03-15T04:26:07.214Z,0.00
2023-03-15T04:26:38.107Z,0.00
2023-03-15T04:27:09.010Z,0.00
2023-03-15T04:27:39.960Z,0.00
2023-03-15T04:28:10.949Z,0.00
2023-03-15T04:28:41.916Z,0.00
2023-03-15T04:29:12.868Z,0.00
2023-03-15T04:29:43.850Z,0.00
2023-03-15T04:30:14.753Z,0.00
2023-03-15T04:30:45.677Z,0.00
2023-03-15T04:31:16.640Z,0.00
2023-03-15T04:31:47.536Z,0.00
2023-03-15T04:32:18.503Z,0.00
2023-03-15T04:32:49.489Z,0.00
2023-03-15T04:33:20.389Z,0.00
2023-03-15T04:33:51.331Z,0.00
2023-03-15T04:34:22.225Z,0.00
2023-03-15T04:34:53.137Z,0.00
2023-03-15T04:35:24.067Z,0.00
2023-03-15T04:35:55.080Z,0.00
2023-03-15T04:36:25.982Z,0.00
2023-03-15T04:36:56.881Z,0.00
2023-03-15T04:37:27.828Z,0.00
2023-03-15T04:37:58.769Z,0.00
2023-03-15T04:38:29.676Z,0.00
2023-03-15T04:39:00.603Z,0.00
2023-03-15T04:39:31.548Z,0.00
2023-03-15T04:40:02.467Z,0.00
2023-03-15T04:40:33.406Z,0.00
2023-03-15T04:41:04.333Z,0.00
2023-03-15T04:41:35.943Z,0.00
2023-03-15T04:42:05.843Z,0.00
2023-03-15T04:42:36.779Z,0.00
2023-03-15T04:43:07.729Z,0.00
2023-03-15T04:43:38.670Z,0.00
2023-03-15T04:44:09.602Z,0.00
2023-03-15T04:44:40.511Z,0.00
2023-03-15T04:45:11.444Z,0.00
2023-03-15T04:45:42.366Z,0.00
2023-03-15T04:46:13.301Z,0.00
2023-03-15T04:46:44.223Z,0.00
2023-03-15T04:47:15.124Z,0.00
2023-03-15T04:47:46.080Z,0.00
2023-03-15T04:48:17.019Z,0.00
2023-03-15T04:48:47.941Z,0.00
2023-03-15T04:49:18.882Z,0.00
2023-03-15T04:49:49.786Z,0.00
2023-03-15T04:50:20.714Z,0.00
2023-03-15T04:50:51.616Z,0.00
2023-03-15T04:51:22.562Z,0.00
2023-03-15T04:51:53.486Z,0.00
2023-03-15T04:52:24.440Z,0.00
2023-03-15T04:52:55.357Z,0.00
2023-03-15T04:53:26.305Z,0.00
2023-03-15T04:53:57.233Z,0.00
2023-03-15T04:54:28.174Z,0.00
2023-03-15T04:54:59.085Z,0.00
2023-03-15T04:55:29.999Z,0.00
2023-03-15T04:56:03.034Z,0.00
2023-03-15T04:56:31.574Z,0.00
2023-03-15T04:57:02.519Z,0.00
2023-03-15T04:57:33.412Z,0.00
2023-03-15T04:58:04.317Z,0.00
2023-03-15T04:58:35.269Z,0.00
2023-03-15T04:59:06.176Z,0.00
2023-03-15T04:59:37.093Z,0.00
2023-03-15T05:00:08.025Z,0.00
2023-03-15T05:00:38.993Z,0.00
2023-03-15T05:01:10.086Z,0.00
2023-03-15T05:01:40.626Z,0.00
2023-03-15T05:02:11.606Z,0.00
2023-03-15T05:02:42.559Z,0.00
2023-03-15T05:03:13.484Z,0.00
2023-03-15T05:03:44.405Z,0.00
2023-03-15T05:04:15.359Z,0.00
2023-03-15T05:04:46.311Z,0.00
2023-03-15T05:05:17.153Z,1.00
2023-03-15T05:05:48.072Z,0.00
2023-03-15T05:06:19.005Z,0.00
2023-03-15T05:06:49.936Z,0.00
2023-03-15T05:07:20.818Z,1.00
2023-03-15T05:07:51.766Z,1.00
2023-03-15T05:08:22.627Z,1.00
2023-03-15T05:08:53.478Z,1.00
2023-03-15T05:09:24.335Z,1.00
2023-03-15T05:09:55.213Z,2.00
2023-03-15T05:10:26.101Z,2.00
2023-03-15T05:10:56.982Z,2.00
2023-03-15T05:11:27.865Z,2.00
2023-03-15T05:11:58.737Z,2.00
2023-03-15T05:12:29.598Z,3.00
2023-03-15T05:13:00.509Z,1.00
2023-03-15T05:13:31.417Z,2.00
2023-03-15T05:14:02.304Z,2.00
2023-03-15T05:14:33.166Z,2.00
2023-03-15T05:15:04.097Z,3.00
2023-03-15T05:15:34.964Z,1.00
2023-03-15T05:16:05.899Z,3.00
2023-03-15T05:16:36.426Z,6.00
2023-03-15T05:17:07.275Z,4.00
2023-03-15T05:17:38.274Z,6.00
2023-03-15T05:18:08.674Z,9.00
2023-03-15T05:18:39.521Z,10.00
2023-03-15T05:19:10.447Z,9.00
2023-03-15T05:19:41.296Z,9.00
2023-03-15T05:20:12.172Z,9.00
2023-03-15T05:20:43.020Z,9.00
2023-03-15T05:21:13.904Z,10.00
2023-03-15T05:21:44.787Z,14.00
2023-03-15T05:22:15.664Z,13.00
2023-03-15T05:22:46.559Z,15.00
2023-03-15T05:23:17.438Z,15.00
2023-03-15T05:23:48.292Z,18.00
2023-03-15T05:24:19.176Z,18.00
2023-03-15T05:24:50.054Z,21.00
2023-03-15T05:25:20.930Z,21.00
2023-03-15T05:25:51.787Z,20.00
2023-03-15T05:26:22.646Z,21.00
2023-03-15T05:26:53.493Z,21.00
2023-03-15T05:27:24.359Z,24.00
2023-03-15T05:27:55.239Z,29.00
2023-03-15T05:28:26.112Z,28.00
2023-03-15T05:28:56.989Z,31.00
2023-03-15T05:29:27.847Z,36.00
2023-03-15T05:29:58.744Z,40.00
2023-03-15T05:30:29.631Z,37.00
2023-03-15T05:31:00.837Z,38.00
2023-03-15T05:31:31.223Z,41.00
2023-03-15T05:32:02.214Z,41.00
2023-03-15T05:32:33.104Z,46.00
2023-03-15T05:33:04.099Z,45.00
2023-03-15T05:33:34.567Z,50.00
2023-03-15T05:34:05.696Z,53.00
2023-03-15T05:34:36.370Z,55.00
2023-03-15T05:35:07.408Z,58.00
2023-03-15T05:35:38.063Z,59.00
2023-03-15T05:36:08.586Z,60.00
2023-03-15T05:36:38.948Z,61.00
2023-03-15T05:37:09.832Z,62.00
2023-03-15T05:37:40.444Z,63.00
2023-03-15T05:38:11.057Z,63.00
2023-03-15T05:38:43.966Z,65.00
2023-03-15T05:39:12.786Z,64.00
2023-03-15T05:39:43.247Z,65.00
2023-03-15T05:40:14.466Z,64.00
2023-03-15T05:40:45.255Z,62.00
2023-03-15T05:41:15.664Z,64.00
2023-03-15T05:41:46.541Z,62.00
2023-03-15T05:42:17.410Z,58.00
2023-03-15T05:42:48.302Z,52.00
2023-03-15T05:43:19.172Z,43.00
2023-03-15T05:43:50.081Z,41.00
2023-03-15T05:44:21.027Z,37.00
2023-03-15T05:44:51.988Z,36.00
2023-03-15T05:45:22.958Z,36.00
2023-03-15T05:45:54.085Z,37.00
2023-03-15T05:46:24.626Z,37.00
2023-03-15T05:46:55.569Z,35.00
2023-03-15T05:47:26.541Z,37.00
2023-03-15T05:47:57.018Z,38.00
2023-03-15T05:48:28.038Z,43.00
2023-03-15T05:48:58.504Z,40.00
2023-03-15T05:49:29.567Z,43.00
2023-03-15T05:50:00.162Z,47.00
2023-03-15T05:50:31.015Z,46.00
2023-03-15T05:51:01.892Z,44.00
2023-03-15T05:51:32.733Z,49.00
2023-03-15T05:52:03.607Z,51.00
2023-03-15T05:52:34.467Z,51.00
2023-03-15T05:53:05.326Z,58.00
2023-03-15T05:53:36.207Z,49.00
2023-03-15T05:54:07.090Z,56.00
2023-03-15T05:54:37.947Z,63.00
2023-03-15T05:55:08.819Z,70.00
2023-03-15T05:55:39.662Z,71.00
2023-03-15T05:56:10.567Z,71.00
2023-03-15T05:56:41.431Z,70.00
2023-03-15T05:57:12.304Z,75.00
2023-03-15T05:57:43.146Z,79.00
2023-03-15T05:58:14.047Z,101.00
2023-03-15T05:58:44.920Z,105.00
2023-03-15T05:59:15.809Z,101.00
2023-03-15T05:59:46.683Z,96.00
2023-03-15T06:00:17.580Z,102.00
2023-03-15T06:00:48.460Z,110.00
2023-03-15T06:01:19.315Z,121.00
2023-03-15T06:01:50.187Z,128.00
2023-03-15T06:02:21.883Z,140.00
2023-03-15T06:02:51.736Z,148.00
2023-03-15T06:03:22.675Z,155.00
2023-03-15T06:03:53.581Z,160.00
2023-03-15T06:04:24.478Z,171.00
2023-03-15T06:04:55.359Z,172.00
2023-03-15T06:05:26.217Z,213.00
2023-03-15T06:05:57.084Z,214.00
2023-03-15T06:06:27.996Z,204.00
2023-03-15T06:06:58.845Z,199.00
2023-03-15T06:07:29.731Z,203.00
2023-03-15T06:08:00.611Z,210.00
2023-03-15T06:08:31.545Z,223.00
2023-03-15T06:09:02.388Z,236.00
2023-03-15T06:09:33.265Z,243.00
2023-03-15T06:10:04.121Z,243.00
2023-03-15T06:10:35.009Z,243.00
2023-03-15T06:11:05.868Z,242.00
2023-03-15T06:11:37.364Z,252.00
2023-03-15T06:12:07.721Z,272.00
2023-03-15T06:12:38.597Z,292.00
2023-03-15T06:13:09.490Z,295.00
2023-03-15T06:13:40.419Z,279.00
2023-03-15T06:14:11.248Z,260.00
2023-03-15T06:14:42.122Z,242.00
2023-03-15T06:15:13.047Z,233.00
2023-03-15T06:15:43.899Z,231.00
2023-03-15T06:16:14.829Z,234.00
2023-03-15T06:16:45.744Z,238.00
2023-03-15T06:17:16.590Z,241.00
2023-03-15T06:17:47.430Z,244.00
2023-03-15T06:18:18.289Z,248.00
2023-03-15T06:18:49.148Z,255.00
2023-03-15T06:19:20.019Z,266.00
2023-03-15T06:19:50.893Z,270.00
2023-03-15T06:20:21.766Z,281.00
2023-03-15T06:20:52.636Z,285.00
2023-03-15T06:21:23.517Z,292.00
2023-03-15T06:21:54.397Z,297.00
2023-03-15T06:22:25.257Z,303.00
2023-03-15T06:22:56.101Z,308.00
2023-03-15T06:23:26.969Z,324.00
2023-03-15T06:23:57.843Z,304.00
2023-03-15T06:24:28.728Z,371.00
2023-03-15T06:24:59.608Z,387.00
2023-03-15T06:25:30.496Z,436.00
2023-03-15T06:26:01.442Z,457.00
2023-03-15T06:26:32.291Z,433.00
2023-03-15T06:27:03.163Z,454.00
2023-03-15T06:27:34.033Z,480.00
2023-03-15T06:28:04.950Z,446.00
2023-03-15T06:28:35.779Z,428.00
2023-03-15T06:29:06.661Z,442.00
2023-03-15T06:29:37.530Z,425.00
2023-03-15T06:30:08.363Z,430.00
2023-03-15T06:30:39.273Z,425.00
2023-03-15T06:31:10.238Z,428.00
2023-03-15T06:31:41.117Z,433.00
2023-03-15T06:32:12.020Z,443.00
2023-03-15T06:32:42.958Z,419.00
2023-03-15T06:33:13.836Z,397.00
2023-03-15T06:33:44.722Z,378.00
2023-03-15T06:34:15.582Z,370.00
2023-03-15T06:34:46.459Z,369.00
2023-03-15T06:35:17.322Z,377.00
2023-03-15T06:35:48.231Z,387.00
2023-03-15T06:36:19.134Z,393.00
2023-03-15T06:36:50.079Z,396.00
2023-03-15T06:37:32.882Z,395.00
2023-03-15T06:37:51.701Z,389.00
2023-03-15T06:38:22.608Z,382.00
2023-03-15T06:38:53.483Z,373.00
2023-03-15T06:39:24.369Z,368.00
2023-03-15T06:39:55.222Z,364.00
2023-03-15T06:40:26.077Z,422.00
2023-03-15T06:40:56.941Z,403.00
2023-03-15T06:41:27.818Z,448.00
2023-03-15T06:41:58.793Z,457.00
2023-03-15T06:42:29.672Z,462.00
2023-03-15T06:43:00.660Z,462.00
2023-03-15T06:43:31.570Z,466.00
2023-03-15T06:44:02.429Z,461.00
2023-03-15T06:44:33.305Z,461.00
2023-03-15T06:45:04.153Z,458.00
2023-03-15T06:45:35.069Z,456.00
2023-03-15T06:46:05.975Z,426.00
2023-03-15T06:46:36.842Z,418.00